Sugar Grove, OH (43155)

1:27 AM EDT on March 27, 2015 (GMT -0400)
W Wheeling St Near N George St | | Change Station
CLOSE
Current Station
Personal Weather Station
Location: Lancaster, OH
Elevation: 835 ft
Nearby Weather Stations

Elev 835 ft 39.71 °N, 82.61 °W | Updated 1 minute ago

Overcast
Overcast
38.0 °F
Feels Like 34 °F
N
5.0
Wind Variable Wind from North
Gusts 7.0 mph

Today
High -- | Low -- °F
--% Chance of Precip.
Yesterday
High -- | Low -- °F
Precip. -- in
7:22 AM 7:48 PM
Waxing Crescent, 49% visible
Pressure 29.95 in
Visibility 10.0 miles
Clouds Few 2500 ft
Overcast 4400 ft
Windchill 34 °F
Dew Point 31 °F
Humidity 76%
Rainfall 0.00 in
Snow Depth Not available.
UV 0.0 out of 12
Pollen .90 out of 12
Air Quality Not available.
Flu Activity Not available.
METAR KLHQ 270453Z AUTO 32011KT 10SM FEW025 OVC044 04/M01 A2994 RMK AO2 SLP142 T00391006 400830033

More Conditions Fewer Conditions

Pressure 29.95 in
Visibility 10.0 miles
Clouds Few 2500 ft
Overcast 4400 ft
Windchill 34 °F
Dew Point 31 °F
Humidity 76%
Rainfall 0.00 in
Snow Depth Not available.
UV 0.0 out of 12
Pollen .90 out of 12
Air Quality Not available.
Flu Activity Not available.
METAR KLHQ 270453Z AUTO 32011KT 10SM FEW025 OVC044 04/M01 A2994 RMK AO2 SLP142 T00391006 400830033

More Conditions Fewer Conditions

10-Day Weather Forecast

Almanac

Astronomy

Mar. 27, 2015 Rise Set
Actual Time
Civil Twilight
Nautical Twilight
Astronomical Twilight
Moon
Length of Visible Light
Length of Day
Tomorrow will be .
, % of the Moon is Illuminated

Today's Extremes

State Highs State Lows

Community

WunderPhotos

Upload Photos

1,808,698 photos uploaded!

WunderBlogs® & News

Nearby

Air Quality

  Air Quality AQ Index Pollutant
Not available.

Snow Depth

Station Depth Elevation

Earthquake Activity

City Distance Mag. Time & Date
Minimum magnitude displayed is 2.5.

Coastal Water Temperatures

Place Temperature

Stations

Nearby Weather Stations

Station Location Temp. Windchill Dew Point Humidity Wind Precip. Elev Updated Type